Time;durP1;ratioP1;P1;durP2;ratioP2;P2;SDS_P1;SDS_P2;PMS_P1;PMS_P2;Temp;Humidity;BMP_temperature;BMP_pressure;BME280_temperature;BME280_humidity;BME280_pressure;Samples;Min_cycle;Max_cycle;Signal;HPM_P1;HPM_P2
2022/12/29 00:02:49;;;;;;;11.30;5.70;;;;;;;4.68;76.19;99554.02;210522;1294;140023;-64
2022/12/29 00:07:55;;;;;;;10.00;5.90;;;;;;;4.67;76.24;99550.09;209739;1295;141327;-64
2022/12/29 00:18:21;;;;;;;5.60;4.80;;;;;;;4.74;76.27;99552.90;210529;1294;141062;-65
2022/12/29 00:44:57;;;;;;;9.20;5.00;;;;;;;4.74;75.86;99529.30;209063;1301;139106;-66
2022/12/29 00:50:01;;;;;;;8.20;4.40;;;;;;;4.70;75.85;99529.38;207843;1290;141215;-65
2022/12/29 00:55:05;;;;;;;6.70;4.90;;;;;;;4.67;75.58;99528.02;208899;1295;140138;-65
2022/12/29 01:00:11;;;;;;;6.50;4.70;;;;;;;4.63;75.64;99522.30;208717;1294;139763;-65
2022/12/29 01:05:17;;;;;;;6.50;5.20;;;;;;;4.61;75.95;99515.51;207952;1285;138721;-65
2022/12/29 01:10:21;;;;;;;8.90;5.10;;;;;;;4.60;75.54;99508.08;209242;1286;139626;-65
2022/12/29 01:15:25;;;;;;;8.60;4.80;;;;;;;4.62;75.70;99511.49;208020;1294;245989;-64
2022/12/29 01:20:29;;;;;;;7.30;4.50;;;;;;;4.61;75.68;99515.27;208202;1294;144679;-65
2022/12/29 01:25:33;;;;;;;5.80;4.20;;;;;;;4.59;75.87;99507.19;207655;1291;245930;-65
2022/12/29 01:30:36;;;;;;;5.40;4.30;;;;;;;4.59;75.79;99497.56;208865;1294;144417;-66
2022/12/29 01:35:39;;;;;;;5.10;4.30;;;;;;;4.58;76.09;99491.84;208944;1295;152556;-64
2022/12/29 01:40:46;;;;;;;4.10;3.00;;;;;;;4.64;75.49;99488.79;208371;1285;140347;-66
2022/12/29 01:45:54;;;;;;;5.80;3.00;;;;;;;4.65;75.61;99464.74;210019;1278;140034;-65
2022/12/29 01:50:58;;;;;;;4.60;3.00;;;;;;;4.61;75.72;99441.67;209790;1294;159437;-63
2022/12/29 01:56:05;;;;;;;5.60;4.50;;;;;;;4.55;75.42;99444.30;209590;1291;139796;-63
2022/12/29 02:01:09;;;;;;;6.20;4.60;;;;;;;4.52;75.51;99472.10;207991;1286;142610;-65
2022/12/29 02:06:23;;;;;;;4.80;3.40;;;;;;;4.54;75.72;99473.70;207684;1292;140626;-65
2022/12/29 02:11:29;;;;;;;5.10;3.20;;;;;;;4.56;75.57;99454.81;210702;1287;139107;-66
2022/12/29 02:17:08;;;;;;;6.30;3.00;;;;;;;4.65;75.63;99460.28;210607;1291;141422;-68
2022/12/29 02:22:23;;;;;;;6.30;3.30;;;;;;;4.66;75.49;99441.84;208621;1294;219419;-66
2022/12/29 02:27:56;;;;;;;3.40;2.90;;;;;;;4.64;75.46;99426.92;209770;1294;140655;-66
2022/12/29 02:33:22;;;;;;;5.30;4.00;;;;;;;4.67;75.36;99428.39;209400;1294;141102;-66
2022/12/29 02:38:43;;;;;;;5.20;3.00;;;;;;;4.69;75.25;99435.95;209302;1294;140109;-66
2022/12/29 02:43:56;;;;;;;5.40;2.80;;;;;;;4.72;75.26;99431.60;209237;1294;138990;-67
2022/12/29 02:49:19;;;;;;;5.10;3.40;;;;;;;4.67;75.05;99416.21;207843;1284;138680;-66
2022/12/29 02:54:40;;;;;;;4.40;2.80;;;;;;;4.65;75.09;99410.08;208199;1293;139705;-64
2022/12/29 02:59:45;;;;;;;6.40;4.20;;;;;;;4.67;75.08;99396.63;207851;1287;139372;-64
2022/12/29 03:05:09;;;;;;;7.20;3.60;;;;;;;4.66;75.00;99392.52;207739;1287;139887;-65
2022/12/29 03:10:34;;;;;;;6.00;3.90;;;;;;;4.61;75.16;99392.12;209243;1285;139091;-65
2022/12/29 03:16:05;;;;;;;7.20;5.20;;;;;;;4.58;75.35;99386.93;207516;1278;1479811;-66
2022/12/29 03:22:26;;;;;;;3.10;2.80;;;;;;;4.58;75.02;99394.48;208034;1292;141086;-68
2022/12/29 03:26:49;;;;;;;6.20;3.70;;;;;;;4.63;74.98;99402.06;208361;1294;138686;-69
2022/12/29 03:31:54;;;;;;;4.60;3.90;;;;;;;4.62;74.90;99389.97;208862;1294;140633;-69
2022/12/29 03:37:08;;;;;;;7.80;3.80;;;;;;;4.59;74.95;99383.85;207774;1285;139009;-67
2022/12/29 03:42:17;;;;;;;5.40;3.60;;;;;;;4.58;74.97;99369.52;208686;1284;140717;-67
2022/12/29 03:47:20;;;;;;;5.10;4.60;;;;;;;4.60;75.01;99358.91;208265;1280;140762;-66
2022/12/29 03:52:22;;;;;;;7.00;4.60;;;;;;;4.56;74.96;99357.98;207733;1286;139723;-67
2022/12/29 03:57:26;;;;;;;3.60;3.30;;;;;;;4.52;75.09;99350.00;208354;1294;138947;-66
2022/12/29 04:02:29;;;;;;;4.60;4.00;;;;;;;4.54;74.72;99339.69;210447;1298;138936;-66
2022/12/29 04:07:34;;;;;;;8.00;3.50;;;;;;;4.53;74.77;99343.98;210494;1294;139509;-67
2022/12/29 04:12:37;;;;;;;8.90;4.00;;;;;;;4.53;74.78;99334.36;210568;1294;139550;-67
2022/12/29 04:17:40;;;;;;;6.00;3.60;;;;;;;4.58;74.92;99336.26;210577;1295;141284;-68
2022/12/29 04:22:43;;;;;;;2.80;2.30;;;;;;;4.67;74.71;99341.92;209000;1293;139928;-65
2022/12/29 04:27:47;;;;;;;5.50;4.00;;;;;;;4.70;74.71;99335.21;209538;1294;161663;-64
2022/12/29 04:32:49;;;;;;;4.90;4.40;;;;;;;4.68;74.80;99335.45;208638;1278;139505;-64
2022/12/29 04:37:53;;;;;;;5.10;3.40;;;;;;;4.69;74.77;99330.39;209775;1282;219515;-64
2022/12/29 04:42:56;;;;;;;4.60;3.10;;;;;;;4.69;74.69;99314.13;208591;1287;139077;-64
2022/12/29 04:47:59;;;;;;;10.40;3.70;;;;;;;4.70;74.75;99315.96;209698;1291;139878;-64
2022/12/29 04:53:02;;;;;;;5.70;3.30;;;;;;;4.73;74.91;99311.25;208633;1285;139548;-65
2022/12/29 04:58:08;;;;;;;3.50;2.60;;;;;;;4.76;74.58;99306.94;208063;1294;140604;-67
2022/12/29 05:03:11;;;;;;;6.50;3.50;;;;;;;4.79;74.61;99306.08;208413;1278;140260;-64
2022/12/29 05:08:14;;;;;;;5.30;3.70;;;;;;;4.79;74.63;99297.42;208558;1294;139693;-65
2022/12/29 05:13:19;;;;;;;8.80;3.60;;;;;;;4.75;74.68;99298.94;208654;1294;141647;-64
2022/12/29 05:18:23;;;;;;;4.40;3.30;;;;;;;4.77;74.62;99303.92;208970;1284;140164;-63
2022/12/29 05:23:27;;;;;;;5.30;4.20;;;;;;;4.83;74.51;99307.09;208641;1293;140365;-64
2022/12/29 05:28:31;;;;;;;6.30;4.20;;;;;;;4.85;74.57;99313.26;208019;1285;140084;-65
2022/12/29 05:33:36;;;;;;;4.30;3.40;;;;;;;4.86;74.60;99312.65;208556;1288;220357;-62
2022/12/29 05:38:39;;;;;;;3.10;2.70;;;;;;;4.85;74.54;99313.46;210235;1277;232321;-63
2022/12/29 05:43:42;;;;;;;3.10;2.70;;;;;;;4.86;74.51;99316.10;209329;1287;140564;-63
2022/12/29 05:48:45;;;;;;;3.60;3.20;;;;;;;4.94;74.65;99315.89;209426;1288;139779;-63
2022/12/29 05:53:49;;;;;;;4.40;3.50;;;;;;;4.97;74.53;99311.29;209333;1286;139999;-64
2022/12/29 05:58:54;;;;;;;4.20;3.30;;;;;;;4.98;74.33;99319.17;210512;1285;138370;-64
2022/12/29 06:03:59;;;;;;;6.30;3.70;;;;;;;5.01;74.44;99329.48;210631;1285;139732;-64
2022/12/29 06:09:03;;;;;;;4.10;3.20;;;;;;;5.07;74.11;99324.63;210708;1294;140603;-64
2022/12/29 06:14:06;;;;;;;4.20;3.60;;;;;;;5.16;74.07;99309.08;210316;1294;139663;-65
2022/12/29 06:19:11;;;;;;;5.40;3.20;;;;;;;5.18;74.12;99303.26;208520;1287;141272;-64
2022/12/29 06:24:14;;;;;;;4.60;3.40;;;;;;;5.18;73.78;99292.30;208052;1278;141497;-65
2022/12/29 06:29:20;;;;;;;6.90;3.40;;;;;;;5.11;73.82;99292.46;208862;1288;138865;-65
2022/12/29 06:34:24;;;;;;;4.90;4.20;;;;;;;5.12;73.80;99286.94;209953;1277;140960;-66
2022/12/29 06:39:27;;;;;;;6.90;4.00;;;;;;;5.13;73.98;99290.06;208352;1294;141802;-65
2022/12/29 06:44:31;;;;;;;3.60;2.80;;;;;;;5.11;73.65;99284.58;207755;1286;235602;-67
2022/12/29 06:49:37;;;;;;;3.40;3.10;;;;;;;5.07;73.48;99280.66;208332;1278;138890;-66
2022/12/29 06:54:39;;;;;;;7.00;4.50;;;;;;;5.06;73.55;99284.85;208411;1286;139337;-65
2022/12/29 06:59:41;;;;;;;4.90;3.90;;;;;;;5.08;73.52;99292.97;208792;1294;141122;-65
2022/12/29 07:04:44;;;;;;;5.20;3.80;;;;;;;5.06;73.27;99297.52;207558;1288;139888;-64
2022/12/29 07:09:49;;;;;;;5.70;3.50;;;;;;;5.08;73.41;99309.76;208095;1294;139027;-63
2022/12/29 07:14:53;;;;;;;4.40;3.80;;;;;;;5.08;73.29;99312.32;208709;1294;138681;-63
2022/12/29 07:19:55;;;;;;;6.70;4.30;;;;;;;5.14;73.19;99302.21;207788;1287;139922;-63
2022/12/29 07:24:58;;;;;;;5.10;3.60;;;;;;;5.18;73.19;99290.09;208280;1285;141220;-65
2022/12/29 07:30:02;;;;;;;5.00;3.50;;;;;;;5.19;73.16;99301.38;209160;1294;139503;-64
2022/12/29 07:35:07;;;;;;;3.80;3.50;;;;;;;5.20;73.31;99293.48;208518;1288;138812;-66
2022/12/29 07:40:12;;;;;;;6.50;4.90;;;;;;;5.22;73.28;99290.05;207586;1287;141557;-65
2022/12/29 07:45:15;;;;;;;6.60;3.70;;;;;;;5.29;73.21;99292.20;208762;1285;141382;-64
2022/12/29 07:50:17;;;;;;;7.80;4.40;;;;;;;5.38;72.75;99296.48;208640;1294;140789;-65
2022/12/29 07:55:19;;;;;;;5.70;4.10;;;;;;;5.42;73.19;99294.35;209609;1293;140105;-65
2022/12/29 08:00:22;;;;;;;5.70;3.70;;;;;;;5.46;72.91;99298.55;210405;1298;150871;-64
2022/12/29 08:05:26;;;;;;;5.50;3.50;;;;;;;5.45;72.72;99300.77;210495;1294;138941;-66
2022/12/29 08:10:29;;;;;;;5.60;3.00;;;;;;;5.49;72.35;99302.94;210678;1287;140306;-65
2022/12/29 08:15:33;;;;;;;8.70;5.80;;;;;;;5.54;72.51;99306.86;210672;1294;142550;-65
2022/12/29 08:20:37;;;;;;;4.60;3.40;;;;;;;5.59;72.56;99296.23;209904;1295;138944;-63
2022/12/29 08:25:40;;;;;;;4.30;3.10;;;;;;;5.65;72.24;99295.02;209902;1294;139329;-65
2022/12/29 08:30:44;;;;;;;6.60;4.10;;;;;;;5.77;72.86;99291.61;209217;1284;140016;-65
2022/12/29 08:35:48;;;;;;;7.40;4.60;;;;;;;5.90;72.43;99301.36;208969;1294;140206;-66
2022/12/29 08:40:51;;;;;;;8.40;4.40;;;;;;;5.94;72.48;99310.10;209636;1294;140005;-66
2022/12/29 08:45:54;;;;;;;7.40;4.50;;;;;;;5.97;72.60;99318.42;208343;1287;140028;-66
2022/12/29 08:50:57;;;;;;;7.00;4.40;;;;;;;5.97;72.30;99316.75;208462;1295;246524;-66
2022/12/29 08:56:01;;;;;;;5.90;4.10;;;;;;;5.95;72.27;99315.27;209307;1289;141928;-66
2022/12/29 09:01:09;;;;;;;8.70;4.70;;;;;;;5.97;72.22;99301.73;208881;1278;139448;-67
2022/12/29 09:06:16;;;;;;;5.20;4.70;;;;;;;6.04;72.46;99290.38;208412;1293;140932;-68
2022/12/29 09:11:23;;;;;;;6.60;3.90;;;;;;;6.11;72.47;99281.48;208583;1294;153456;-66
2022/12/29 09:16:26;;;;;;;8.20;3.90;;;;;;;6.19;72.46;99287.70;209177;1294;138653;-66
2022/12/29 09:21:30;;;;;;;6.70;4.40;;;;;;;6.25;72.62;99294.46;209124;1290;140200;-67
2022/12/29 09:26:33;;;;;;;6.30;3.40;;;;;;;6.36;72.20;99290.73;208238;1293;140499;-65
2022/12/29 09:31:37;;;;;;;6.90;4.40;;;;;;;6.54;72.24;99292.80;209283;1294;152473;-65
2022/12/29 09:36:42;;;;;;;4.90;3.40;;;;;;;6.64;72.17;99290.50;208752;1293;140637;-66
2022/12/29 09:42:14;;;;;;;12.20;5.70;;;;;;;6.78;72.04;99277.45;209004;1288;141283;-64
2022/12/29 09:47:20;;;;;;;8.60;4.80;;;;;;;6.88;71.78;99271.19;209274;1294;140704;-65
2022/12/29 09:52:29;;;;;;;7.20;5.80;;;;;;;6.93;72.01;99272.86;209119;1285;140963;-64
2022/12/29 09:57:42;;;;;;;8.20;4.20;;;;;;;6.95;71.43;99266.35;210380;1294;139613;-66
2022/12/29 10:02:56;;;;;;;7.40;4.30;;;;;;;7.02;71.26;99270.21;210747;1291;139300;-67
2022/12/29 10:08:09;;;;;;;7.20;4.50;;;;;;;7.09;70.93;99261.55;210459;1295;139395;-65
2022/12/29 10:13:37;;;;;;;6.10;4.00;;;;;;;7.18;71.17;99262.79;210587;1294;139671;-66
2022/12/29 10:19:18;;;;;;;7.30;4.60;;;;;;;7.30;71.27;99263.44;209276;1294;140467;-64
2022/12/29 10:24:23;;;;;;;5.60;4.00;;;;;;;7.44;70.78;99259.33;208700;1281;140552;-67
2022/12/29 10:29:36;;;;;;;5.70;4.70;;;;;;;7.47;70.85;99249.87;209458;1287;141101;-63
2022/12/29 10:34:49;;;;;;;7.90;4.40;;;;;;;7.47;70.51;99256.96;208067;1295;139759;-64
2022/12/29 10:39:54;;;;;;;8.60;4.90;;;;;;;7.46;70.81;99254.45;209143;1287;231595;-63
2022/12/29 10:45:00;;;;;;;8.90;4.60;;;;;;;7.47;71.05;99254.80;208928;1291;140437;-65
2022/12/29 10:50:04;;;;;;;12.80;6.60;;;;;;;7.46;70.76;99244.95;208769;1294;138760;-64
2022/12/29 10:55:15;;;;;;;5.60;4.60;;;;;;;7.49;70.45;99245.56;208063;1294;141431;-63
2022/12/29 11:00:21;;;;;;;9.00;5.90;;;;;;;7.49;70.78;99243.02;208956;1295;139217;-64
2022/12/29 11:05:34;;;;;;;7.40;5.00;;;;;;;7.42;70.50;99238.59;207862;1294;141160;-63
2022/12/29 11:10:44;;;;;;;6.80;4.80;;;;;;;7.37;70.65;99226.73;208100;1286;139813;-62
2022/12/29 11:15:50;;;;;;;5.30;4.20;;;;;;;7.37;70.53;99226.17;208692;1290;139467;-64
2022/12/29 11:21:00;;;;;;;8.10;4.70;;;;;;;7.39;70.73;99217.45;208537;1281;139762;-64
2022/12/29 11:26:06;;;;;;;6.50;4.50;;;;;;;7.48;70.65;99217.54;209430;1285;139697;-67
2022/12/29 11:31:10;;;;;;;15.40;4.90;;;;;;;7.64;70.68;99226.10;208079;1285;140980;-65
2022/12/29 11:36:20;;;;;;;4.70;4.20;;;;;;;7.69;70.94;99223.08;208999;1292;140604;-65
2022/12/29 11:41:29;;;;;;;11.30;5.90;;;;;;;7.73;70.72;99221.92;208530;1294;139591;-64
2022/12/29 11:46:38;;;;;;;8.40;4.60;;;;;;;7.81;70.94;99218.50;208691;1298;140012;-64
2022/12/29 11:51:47;;;;;;;5.40;3.80;;;;;;;7.83;70.91;99211.70;210551;1301;139457;-62
2022/12/29 11:56:51;;;;;;;11.40;6.80;;;;;;;7.85;70.66;99215.45;210618;1293;140011;-65
2022/12/29 12:01:56;;;;;;;8.20;7.20;;;;;;;7.90;70.57;99209.33;210501;1294;139464;-66
2022/12/29 12:07:09;;;;;;;5.20;4.70;;;;;;;7.97;70.53;99204.58;210014;1294;235883;-66
2022/12/29 12:12:30;;;;;;;7.20;5.60;;;;;;;8.02;70.56;99198.19;209791;1284;138838;-65
2022/12/29 12:17:58;;;;;;;6.70;5.30;;;;;;;8.04;70.51;99200.50;208629;1288;139441;-65
2022/12/29 12:23:28;;;;;;;6.40;5.30;;;;;;;8.09;70.89;99198.73;208898;1290;139301;-67
2022/12/29 12:28:58;;;;;;;5.40;3.60;;;;;;;8.13;70.83;99203.80;209232;1300;140826;-66
2022/12/29 12:34:09;;;;;;;7.40;4.20;;;;;;;8.17;70.46;99194.06;208388;1286;223020;-66
2022/12/29 12:39:42;;;;;;;14.10;5.00;;;;;;;8.21;70.46;99194.00;209072;1294;141203;-64
2022/12/29 12:45:24;;;;;;;6.40;4.80;;;;;;;8.19;70.44;99189.88;209765;1292;140885;-66
2022/12/29 12:50:41;;;;;;;8.80;5.10;;;;;;;8.20;70.62;99192.05;207927;1289;219442;-65
2022/12/29 12:56:13;;;;;;;9.20;3.90;;;;;;;8.20;70.65;99193.45;208058;1285;138831;-64
2022/12/29 13:01:51;;;;;;;6.20;4.00;;;;;;;8.20;70.69;99189.73;208239;1286;140035;-64
2022/12/29 13:07:27;;;;;;;5.80;4.30;;;;;;;8.18;70.35;99193.14;207595;1284;139550;-65
2022/12/29 13:12:57;;;;;;;10.20;4.80;;;;;;;8.21;70.57;99191.14;207550;1287;139996;-67
2022/12/29 13:18:18;;;;;;;5.90;4.70;;;;;;;8.19;70.55;99186.42;208799;1294;139935;-66
2022/12/29 13:23:34;;;;;;;5.30;4.40;;;;;;;8.19;70.68;99182.77;209425;1287;139761;-65
2022/12/29 13:29:06;;;;;;;7.90;3.90;;;;;;;8.18;70.68;99189.58;207975;1294;140317;-65
2022/12/29 13:34:25;;;;;;;13.60;7.50;;;;;;;8.18;70.67;99187.72;209226;1287;141360;-66
2022/12/29 13:39:49;;;;;;;28.70;18.90;;;;;;;8.23;70.71;99192.98;209826;1295;139737;-65
2022/12/29 13:45:06;;;;;;;6.70;4.50;;;;;;;8.33;70.63;99187.93;210602;1298;139791;-65
2022/12/29 13:50:23;;;;;;;7.50;6.20;;;;;;;8.38;70.59;99190.83;209930;1293;139885;-65
2022/12/29 13:55:49;;;;;;;7.20;3.50;;;;;;;8.39;70.43;99193.88;210371;1294;140567;-68
2022/12/29 14:01:01;;;;;;;4.50;3.40;;;;;;;8.38;70.37;99203.25;210560;1284;140399;-64
2022/12/29 14:06:16;;;;;;;5.20;3.90;;;;;;;8.38;70.44;99212.77;210415;1294;140457;-66
2022/12/29 14:11:27;;;;;;;6.50;4.40;;;;;;;8.39;70.23;99208.91;209860;1300;140363;-67
2022/12/29 14:16:35;;;;;;;4.90;3.90;;;;;;;8.40;70.12;99211.05;210309;1293;140650;-67
2022/12/29 14:21:38;;;;;;;;;;;;;;;8.36;70.06;99214.25;210654;1294;139043;-67
2022/12/29 14:26:41;;;;;;;8.30;5.50;;;;;;;8.29;70.35;99216.99;208408;1292;125670;-65
2022/12/29 14:31:46;;;;;;;7.50;4.80;;;;;;;8.24;70.39;99214.40;209447;1281;140409;-68
2022/12/29 14:36:56;;;;;;;5.80;4.40;;;;;;;8.21;70.40;99218.34;207791;1292;138824;-67
2022/12/29 14:42:01;;;;;;;7.60;4.90;;;;;;;8.18;70.47;99221.29;207720;1292;140372;-66
2022/12/29 14:47:08;;;;;;;11.70;5.10;;;;;;;8.20;70.28;99223.92;208595;1286;140408;-67
2022/12/29 14:52:23;;;;;;;6.00;4.10;;;;;;;8.15;70.62;99220.89;207787;1285;139590;-65
2022/12/29 14:57:40;;;;;;;6.20;5.10;;;;;;;8.11;70.57;99229.04;208401;1294;138965;-66
2022/12/29 15:03:08;;;;;;;6.80;4.30;;;;;;;8.08;70.68;99223.21;207889;1288;139363;-65
2022/12/29 15:08:18;;;;;;;9.20;6.30;;;;;;;8.03;70.77;99226.08;208189;1284;245902;-66
2022/12/29 15:13:32;;;;;;;6.70;4.80;;;;;;;8.01;70.53;99230.23;208676;1295;140781;-66
2022/12/29 15:18:39;;;;;;;9.00;4.80;;;;;;;8.05;70.66;99226.23;207236;1294;702433;-67
2022/12/29 15:23:45;;;;;;;7.00;5.30;;;;;;;8.04;70.76;99224.30;209539;1292;141318;-65
2022/12/29 15:28:54;;;;;;;6.80;4.70;;;;;;;8.01;70.72;99217.41;208720;1285;139210;-65
2022/12/29 15:34:09;;;;;;;;;;;;;;;7.96;70.88;99222.36;208650;1299;139917;-64
2022/12/29 15:39:28;;;;;;;8.10;4.20;;;;;;;7.88;70.93;99221.23;209063;1291;125528;-67
2022/12/29 15:44:43;;;;;;;11.70;5.50;;;;;;;7.88;70.80;99221.48;210386;1295;139060;-65
2022/12/29 15:49:53;;;;;;;7.90;4.80;;;;;;;7.92;70.91;99224.35;209932;1291;139879;-64
2022/12/29 15:54:57;;;;;;;7.60;4.50;;;;;;;7.94;70.71;99229.59;208242;1291;139925;-67
2022/12/29 16:00:00;;;;;;;11.30;5.50;;;;;;;7.90;70.94;99234.33;207662;1284;140829;-67
2022/12/29 16:05:09;;;;;;;9.20;5.50;;;;;;;7.81;70.64;99236.33;210332;1298;140493;-63
2022/12/29 16:10:30;;;;;;;9.00;5.80;;;;;;;7.76;70.78;99229.79;209326;1301;139515;-63
2022/12/29 16:15:35;;;;;;;10.30;6.50;;;;;;;7.74;70.71;99230.95;209758;1295;140868;-66
2022/12/29 16:20:42;;;;;;;11.40;6.50;;;;;;;7.66;70.67;99236.55;207904;1302;139276;-64
2022/12/29 16:25:47;;;;;;;7.30;5.00;;;;;;;7.58;70.76;99235.30;207588;1295;139444;-66
2022/12/29 16:31:15;;;;;;;8.40;5.40;;;;;;;7.48;70.58;99237.70;208147;1284;149468;-65
2022/12/29 16:36:55;;;;;;;10.00;5.80;;;;;;;7.36;70.89;99241.32;207433;1292;140411;-68
2022/12/29 16:42:21;;;;;;;11.60;6.10;;;;;;;7.34;70.81;99242.54;209357;1294;141072;-64
2022/12/29 16:47:28;;;;;;;10.20;6.20;;;;;;;7.39;71.02;99250.71;208936;1292;140445;-63
2022/12/29 16:52:34;;;;;;;7.00;5.30;;;;;;;7.41;71.20;99240.65;208904;1295;140593;-63
2022/12/29 16:57:37;;;;;;;8.70;5.40;;;;;;;7.42;71.27;99247.73;207698;1294;153427;-63
2022/12/29 17:02:44;;;;;;;6.30;3.90;;;;;;;7.42;71.40;99248.46;208736;1293;140792;-62
2022/12/29 17:07:51;;;;;;;11.10;6.40;;;;;;;7.42;71.02;99252.59;207999;1287;140003;-66
2022/12/29 17:12:53;;;;;;;12.00;6.90;;;;;;;7.46;71.20;99252.91;208056;1295;140050;-63
2022/12/29 17:17:56;;;;;;;10.70;6.10;;;;;;;7.46;71.24;99253.17;208993;1294;138879;-67
2022/12/29 17:22:59;;;;;;;10.60;6.70;;;;;;;7.45;71.20;99253.73;208888;1294;141752;-65
2022/12/29 17:28:20;;;;;;;14.60;7.30;;;;;;;7.46;71.36;99252.37;209579;1289;141039;-65
2022/12/29 17:33:22;;;;;;;9.30;6.10;;;;;;;7.52;71.40;99268.40;207945;1288;142094;-65
2022/12/29 17:38:30;;;;;;;9.50;6.30;;;;;;;7.59;71.21;99275.90;207748;1284;139715;-67
2022/12/29 17:43:36;;;;;;;7.80;6.20;;;;;;;7.60;71.30;99274.87;209230;1293;139945;-68
2022/12/29 17:48:38;;;;;;;8.80;6.40;;;;;;;7.61;71.39;99274.69;209472;1295;140173;-65
2022/12/29 17:53:41;;;;;;;9.00;5.30;;;;;;;7.64;71.38;99272.38;209117;1295;139793;-68
2022/12/29 17:58:47;;;;;;;9.40;6.00;;;;;;;7.66;71.22;99270.87;210557;1295;141126;-63
2022/12/29 18:03:51;;;;;;;6.40;5.80;;;;;;;7.71;71.12;99272.23;210537;1300;139927;-64
2022/12/29 18:08:53;;;;;;;10.60;7.60;;;;;;;7.73;70.97;99275.02;210094;1293;139220;-67
2022/12/29 18:13:56;;;;;;;12.50;6.60;;;;;;;7.70;70.64;99276.40;209963;1294;140947;-67
2022/12/29 18:18:58;;;;;;;10.40;5.80;;;;;;;7.62;71.03;99275.51;207376;1287;140144;-66
2022/12/29 18:24:00;;;;;;;11.70;7.30;;;;;;;7.56;71.00;99273.41;208841;1288;139532;-66
2022/12/29 18:29:03;;;;;;;8.10;5.50;;;;;;;7.56;70.91;99273.70;209432;1290;139688;-63
2022/12/29 18:34:16;;;;;;;16.90;7.60;;;;;;;7.58;70.83;99272.77;208637;1286;140321;-62
2022/12/29 18:39:19;;;;;;;11.30;7.10;;;;;;;7.57;70.95;99280.90;209206;1295;150701;-62
2022/12/29 18:44:29;;;;;;;10.00;6.00;;;;;;;7.52;70.60;99275.95;207659;1292;140330;-68
2022/12/29 18:49:32;;;;;;;9.50;6.70;;;;;;;7.45;70.79;99275.39;208131;1285;159987;-68
2022/12/29 18:54:35;;;;;;;11.10;5.50;;;;;;;7.40;70.85;99274.88;207763;1287;140466;-64
2022/12/29 18:59:37;;;;;;;9.30;5.80;;;;;;;7.38;71.12;99272.95;208161;1293;140630;-68
2022/12/29 19:04:40;;;;;;;9.80;6.20;;;;;;;7.42;70.82;99278.28;207512;1284;234572;-63
2022/12/29 19:09:44;;;;;;;8.50;5.80;;;;;;;7.45;71.13;99275.91;208283;1288;143736;-67
2022/12/29 19:14:47;;;;;;;8.10;5.50;;;;;;;7.48;71.09;99278.09;207609;1289;152090;-65
2022/12/29 19:19:50;;;;;;;14.30;6.60;;;;;;;7.50;71.02;99277.25;209043;1284;140575;-67
2022/12/29 19:24:53;;;;;;;11.00;6.80;;;;;;;7.51;71.18;99278.57;209650;1298;140046;-67
2022/12/29 19:30:02;;;;;;;11.20;7.40;;;;;;;7.58;70.80;99271.38;209450;1300;141269;-67
2022/12/29 19:35:06;;;;;;;12.00;6.40;;;;;;;7.60;70.72;99273.60;210259;1292;140774;-65
2022/12/29 19:40:16;;;;;;;11.50;5.60;;;;;;;7.61;70.89;99278.73;210054;1294;139486;-65
2022/12/29 19:45:20;;;;;;;9.30;6.30;;;;;;;7.62;70.76;99274.59;210682;1295;140164;-63
2022/12/29 19:50:26;;;;;;;11.90;6.40;;;;;;;7.63;70.65;99275.79;210458;1295;141348;-62
2022/12/29 19:55:30;;;;;;;8.80;5.90;;;;;;;7.68;70.45;99275.50;210297;1295;141427;-64
2022/12/29 20:00:38;;;;;;;8.00;6.80;;;;;;;7.70;70.62;99278.77;208832;1294;140179;-67
2022/12/29 20:05:49;;;;;;;11.10;7.80;;;;;;;7.73;70.69;99285.64;208256;1294;140314;-63
2022/12/29 20:11:17;;;;;;;8.90;6.40;;;;;;;7.66;70.23;99282.02;207656;1295;140639;-65
2022/12/29 20:16:20;;;;;;;9.00;6.70;;;;;;;7.57;70.54;99276.25;208569;1287;139096;-65
2022/12/29 20:21:25;;;;;;;12.40;7.90;;;;;;;7.56;70.37;99281.86;208535;1279;140105;-65
2022/12/29 20:26:29;;;;;;;12.00;8.40;;;;;;;7.54;70.41;99285.27;207734;1285;141128;-67
2022/12/29 20:31:35;;;;;;;15.00;9.30;;;;;;;7.49;70.36;99285.30;208763;1294;140132;-62
2022/12/29 20:36:42;;;;;;;10.60;6.80;;;;;;;7.36;70.47;99280.97;208600;1287;140276;-65
2022/12/29 20:41:46;;;;;;;10.50;6.90;;;;;;;7.26;70.63;99284.19;207985;1293;139653;-63
2022/12/29 20:46:49;;;;;;;10.20;5.70;;;;;;;7.20;70.26;99288.50;209209;1287;142260;-63
2022/12/29 20:51:52;;;;;;;13.60;8.10;;;;;;;7.12;70.59;99294.46;209582;1284;139219;-62
2022/12/29 20:57:11;;;;;;;12.80;7.10;;;;;;;7.08;70.65;99296.10;207840;1286;222987;-68
2022/12/29 21:02:21;;;;;;;10.30;6.60;;;;;;;7.07;70.68;99302.23;208191;1295;140973;-63
2022/12/29 21:07:25;;;;;;;14.80;8.50;;;;;;;7.05;70.60;99302.19;209476;1291;139787;-67
2022/12/29 21:12:28;;;;;;;12.60;7.80;;;;;;;7.00;70.63;99300.73;207876;1276;140393;-64
2022/12/29 21:17:30;;;;;;;15.30;8.20;;;;;;;6.94;70.70;99295.72;208945;1287;142092;-67
2022/12/29 21:22:32;;;;;;;15.30;7.90;;;;;;;6.87;70.66;99293.70;207533;1288;141399;-66
2022/12/29 21:27:36;;;;;;;10.70;7.60;;;;;;;6.81;70.66;99297.52;209112;1289;141544;-64
2022/12/29 21:32:40;;;;;;;19.90;10.00;;;;;;;6.76;70.91;99307.17;209154;1286;139698;-64
2022/12/29 21:37:42;;;;;;;15.20;11.10;;;;;;;6.72;70.85;99315.92;210170;1278;140712;-65
2022/12/29 21:42:47;;;;;;;12.20;7.20;;;;;;;6.64;70.85;99313.92;209438;1285;139533;-67
2022/12/29 21:53:14;;;;;;;14.70;7.50;;;;;;;6.56;70.86;99329.20;209021;1289;219538;-66
2022/12/29 22:14:25;;;;;;;18.10;8.80;;;;;;;6.21;70.84;99342.82;208133;1293;139585;-65
2022/12/29 22:19:28;;;;;;;14.30;9.30;;;;;;;6.17;71.43;99343.14;208488;1290;232250;-64
2022/12/29 22:24:31;;;;;;;11.40;8.10;;;;;;;6.12;71.49;99354.05;207508;1288;236982;-65
2022/12/29 22:29:34;;;;;;;9.50;5.80;;;;;;;6.04;71.70;99367.64;207734;1287;140619;-66
2022/12/29 22:34:37;;;;;;;13.80;10.10;;;;;;;5.95;71.92;99364.92;207705;1286;139451;-64
2022/12/29 22:39:40;;;;;;;13.50;10.40;;;;;;;5.87;71.64;99365.27;207646;1278;140247;-63
2022/12/29 22:44:43;;;;;;;14.80;8.90;;;;;;;5.82;71.97;99359.80;207860;1287;140228;-64
2022/12/29 22:49:45;;;;;;;13.00;8.70;;;;;;;5.76;72.31;99361.52;208580;1278;139564;-62
2022/12/29 22:54:47;;;;;;;15.20;9.00;;;;;;;5.69;72.09;99364.23;209101;1294;139642;-62
2022/12/29 22:59:49;;;;;;;18.00;10.30;;;;;;;5.64;72.31;99358.98;208651;1288;140894;-63
2022/12/29 23:04:52;;;;;;;18.60;9.80;;;;;;;5.59;72.31;99358.70;207930;1288;139826;-65
2022/12/29 23:10:06;;;;;;;16.50;9.20;;;;;;;5.56;72.69;99356.56;209630;1294;139456;-62
2022/12/29 23:15:09;;;;;;;15.00;9.00;;;;;;;5.49;72.60;99357.92;208607;1295;139428;-64
2022/12/29 23:20:12;;;;;;;16.00;9.30;;;;;;;5.48;72.75;99360.08;210103;1289;139959;-65
2022/12/29 23:25:17;;;;;;;14.10;10.00;;;;;;;5.47;73.14;99356.55;207641;1285;140723;-65
2022/12/29 23:30:19;;;;;;;12.90;7.80;;;;;;;5.45;73.17;99358.42;207845;1287;140498;-65
2022/12/29 23:35:23;;;;;;;11.20;9.30;;;;;;;5.38;72.77;99355.08;209857;1298;139589;-63
2022/12/29 23:40:27;;;;;;;20.00;11.00;;;;;;;5.35;73.05;99357.33;210110;1285;139497;-66
2022/12/29 23:45:33;;;;;;;15.50;8.50;;;;;;;5.33;72.99;99351.56;210364;1294;140792;-66
2022/12/29 23:50:41;;;;;;;11.00;8.60;;;;;;;5.35;73.17;99348.87;210290;1295;140190;-66
2022/12/29 23:55:53;;;;;;;13.30;9.70;;;;;;;5.34;73.17;99345.05;209381;1286;139583;-65
